sensor_id;sensor_type;location;lat;lon;timestamp;P1;durP1;ratioP1;P2;durP2;ratioP2
10045;SDS011;5063;50.878;4.742;2022-11-27T00:00:23;6.63;;;3.77;;
10045;SDS011;5063;50.878;4.742;2022-11-27T00:02:48;16.93;;;4.83;;
10045;SDS011;5063;50.878;4.742;2022-11-27T00:05:14;7.43;;;4.13;;
10045;SDS011;5063;50.878;4.742;2022-11-27T00:07:40;9.73;;;4.57;;
10045;SDS011;5063;50.878;4.742;2022-11-27T00:10:06;9.53;;;4.57;;
10045;SDS011;5063;50.878;4.742;2022-11-27T00:12:32;10.60;;;3.83;;
10045;SDS011;5063;50.878;4.742;2022-11-27T00:14:57;12.87;;;4.10;;
10045;SDS011;5063;50.878;4.742;2022-11-27T00:17:23;6.03;;;3.90;;
10045;SDS011;5063;50.878;4.742;2022-11-27T00:19:49;8.63;;;4.03;;
10045;SDS011;5063;50.878;4.742;2022-11-27T00:22:15;10.63;;;3.67;;
10045;SDS011;5063;50.878;4.742;2022-11-27T00:24:41;8.37;;;4.40;;
10045;SDS011;5063;50.878;4.742;2022-11-27T00:27:08;11.07;;;3.80;;
10045;SDS011;5063;50.878;4.742;2022-11-27T00:29:34;8.37;;;4.00;;
10045;SDS011;5063;50.878;4.742;2022-11-27T00:31:59;6.07;;;3.30;;
10045;SDS011;5063;50.878;4.742;2022-11-27T00:34:25;6.33;;;4.17;;
10045;SDS011;5063;50.878;4.742;2022-11-27T00:36:51;7.97;;;3.77;;
10045;SDS011;5063;50.878;4.742;2022-11-27T00:39:17;5.30;;;3.53;;
10045;SDS011;5063;50.878;4.742;2022-11-27T00:41:43;7.80;;;3.47;;
10045;SDS011;5063;50.878;4.742;2022-11-27T00:44:09;10.90;;;4.07;;
10045;SDS011;5063;50.878;4.742;2022-11-27T00:46:36;7.73;;;3.17;;
10045;SDS011;5063;50.878;4.742;2022-11-27T00:49:03;5.30;;;3.10;;
10045;SDS011;5063;50.878;4.742;2022-11-27T00:51:30;7.10;;;3.20;;
10045;SDS011;5063;50.878;4.742;2022-11-27T00:53:56;8.77;;;3.40;;
10045;SDS011;5063;50.878;4.742;2022-11-27T00:56:26;7.90;;;3.43;;
10045;SDS011;5063;50.878;4.742;2022-11-27T00:58:54;5.23;;;3.10;;
10045;SDS011;5063;50.878;4.742;2022-11-27T01:01:25;4.77;;;2.47;;
10045;SDS011;5063;50.878;4.742;2022-11-27T01:03:53;5.13;;;2.83;;
10045;SDS011;5063;50.878;4.742;2022-11-27T01:06:20;8.10;;;3.10;;
10045;SDS011;5063;50.878;4.742;2022-11-27T01:08:46;8.03;;;3.37;;
10045;SDS011;5063;50.878;4.742;2022-11-27T01:11:20;6.37;;;3.23;;
10045;SDS011;5063;50.878;4.742;2022-11-27T01:13:51;6.63;;;3.03;;
10045;SDS011;5063;50.878;4.742;2022-11-27T01:16:20;6.37;;;3.20;;
10045;SDS011;5063;50.878;4.742;2022-11-27T01:18:49;7.17;;;2.90;;
10045;SDS011;5063;50.878;4.742;2022-11-27T01:21:16;8.00;;;3.03;;
10045;SDS011;5063;50.878;4.742;2022-11-27T01:23:44;7.40;;;2.73;;
10045;SDS011;5063;50.878;4.742;2022-11-27T01:26:10;6.27;;;3.20;;
10045;SDS011;5063;50.878;4.742;2022-11-27T01:28:36;3.97;;;2.87;;
10045;SDS011;5063;50.878;4.742;2022-11-27T01:31:08;5.63;;;2.30;;
10045;SDS011;5063;50.878;4.742;2022-11-27T01:33:36;6.30;;;2.43;;
10045;SDS011;5063;50.878;4.742;2022-11-27T01:36:03;3.60;;;2.20;;
10045;SDS011;5063;50.878;4.742;2022-11-27T01:38:31;6.23;;;2.80;;
10045;SDS011;5063;50.878;4.742;2022-11-27T01:40:58;6.63;;;2.37;;
10045;SDS011;5063;50.878;4.742;2022-11-27T01:46:56;6.07;;;3.03;;
10045;SDS011;5063;50.878;4.742;2022-11-27T01:51:33;5.83;;;2.73;;
10045;SDS011;5063;50.878;4.742;2022-11-27T01:54:06;6.13;;;2.70;;
10045;SDS011;5063;50.878;4.742;2022-11-27T01:56:34;3.17;;;2.10;;
10045;SDS011;5063;50.878;4.742;2022-11-27T01:59:00;4.77;;;2.23;;
10045;SDS011;5063;50.878;4.742;2022-11-27T02:01:27;4.67;;;2.20;;
10045;SDS011;5063;50.878;4.742;2022-11-27T02:03:53;6.37;;;2.40;;
10045;SDS011;5063;50.878;4.742;2022-11-27T02:06:23;3.93;;;2.40;;
10045;SDS011;5063;50.878;4.742;2022-11-27T02:08:50;6.33;;;2.33;;
10045;SDS011;5063;50.878;4.742;2022-11-27T02:14:31;4.17;;;2.70;;
10045;SDS011;5063;50.878;4.742;2022-11-27T02:17:21;5.40;;;2.60;;
10045;SDS011;5063;50.878;4.742;2022-11-27T02:20:12;5.27;;;3.03;;
10045;SDS011;5063;50.878;4.742;2022-11-27T02:29:02;3.33;;;2.63;;
10045;SDS011;5063;50.878;4.742;2022-11-27T02:31:33;5.33;;;2.73;;
10045;SDS011;5063;50.878;4.742;2022-11-27T02:36:58;7.37;;;2.80;;
10045;SDS011;5063;50.878;4.742;2022-11-27T02:39:50;4.73;;;2.70;;
10045;SDS011;5063;50.878;4.742;2022-11-27T02:42:25;5.83;;;3.00;;
10045;SDS011;5063;50.878;4.742;2022-11-27T02:45:00;5.10;;;2.93;;
10045;SDS011;5063;50.878;4.742;2022-11-27T02:47:28;3.67;;;2.70;;
10045;SDS011;5063;50.878;4.742;2022-11-27T02:49:56;3.97;;;2.30;;
10045;SDS011;5063;50.878;4.742;2022-11-27T02:52:26;4.83;;;2.60;;
10045;SDS011;5063;50.878;4.742;2022-11-27T02:54:53;5.00;;;3.20;;
10045;SDS011;5063;50.878;4.742;2022-11-27T02:57:22;3.33;;;2.33;;
10045;SDS011;5063;50.878;4.742;2022-11-27T02:59:49;4.90;;;3.33;;
10045;SDS011;5063;50.878;4.742;2022-11-27T03:02:19;4.30;;;2.50;;
10045;SDS011;5063;50.878;4.742;2022-11-27T03:04:49;5.33;;;2.97;;
10045;SDS011;5063;50.878;4.742;2022-11-27T03:08:04;4.20;;;2.87;;
10045;SDS011;5063;50.878;4.742;2022-11-27T03:10:16;7.23;;;2.80;;
10045;SDS011;5063;50.878;4.742;2022-11-27T03:12:46;8.83;;;3.50;;
10045;SDS011;5063;50.878;4.742;2022-11-27T03:15:13;4.73;;;3.00;;
10045;SDS011;5063;50.878;4.742;2022-11-27T03:17:56;5.10;;;2.80;;
10045;SDS011;5063;50.878;4.742;2022-11-27T03:20:50;7.20;;;2.67;;
10045;SDS011;5063;50.878;4.742;2022-11-27T03:23:28;6.10;;;2.60;;
10045;SDS011;5063;50.878;4.742;2022-11-27T03:25:53;7.00;;;2.87;;
10045;SDS011;5063;50.878;4.742;2022-11-27T03:28:19;3.47;;;2.87;;
10045;SDS011;5063;50.878;4.742;2022-11-27T03:30:46;9.33;;;3.33;;
10045;SDS011;5063;50.878;4.742;2022-11-27T03:33:11;4.27;;;2.63;;
10045;SDS011;5063;50.878;4.742;2022-11-27T03:35:37;7.47;;;3.23;;
10045;SDS011;5063;50.878;4.742;2022-11-27T03:38:03;5.70;;;2.80;;
10045;SDS011;5063;50.878;4.742;2022-11-27T03:40:32;5.57;;;2.60;;
10045;SDS011;5063;50.878;4.742;2022-11-27T03:43:23;4.10;;;2.73;;
10045;SDS011;5063;50.878;4.742;2022-11-27T03:46:07;4.80;;;2.53;;
10045;SDS011;5063;50.878;4.742;2022-11-27T03:48:42;6.73;;;2.80;;
10045;SDS011;5063;50.878;4.742;2022-11-27T03:51:37;6.10;;;2.80;;
10045;SDS011;5063;50.878;4.742;2022-11-27T03:54:33;9.30;;;3.20;;
10045;SDS011;5063;50.878;4.742;2022-11-27T03:57:14;4.83;;;3.03;;
10045;SDS011;5063;50.878;4.742;2022-11-27T03:59:46;4.83;;;3.03;;
10045;SDS011;5063;50.878;4.742;2022-11-27T04:02:15;7.37;;;3.23;;
10045;SDS011;5063;50.878;4.742;2022-11-27T04:04:52;9.90;;;3.87;;
10045;SDS011;5063;50.878;4.742;2022-11-27T04:07:18;5.37;;;2.63;;
10045;SDS011;5063;50.878;4.742;2022-11-27T04:09:44;7.57;;;3.20;;
10045;SDS011;5063;50.878;4.742;2022-11-27T04:12:09;6.53;;;3.33;;
10045;SDS011;5063;50.878;4.742;2022-11-27T04:14:36;7.27;;;3.27;;
10045;SDS011;5063;50.878;4.742;2022-11-27T04:17:02;7.80;;;2.83;;
10045;SDS011;5063;50.878;4.742;2022-11-27T04:19:28;7.60;;;3.20;;
10045;SDS011;5063;50.878;4.742;2022-11-27T04:21:53;10.20;;;3.23;;
10045;SDS011;5063;50.878;4.742;2022-11-27T04:24:19;7.83;;;2.73;;
10045;SDS011;5063;50.878;4.742;2022-11-27T04:26:45;5.40;;;2.97;;
10045;SDS011;5063;50.878;4.742;2022-11-27T04:29:10;6.10;;;3.20;;
10045;SDS011;5063;50.878;4.742;2022-11-27T04:31:36;5.53;;;2.87;;
10045;SDS011;5063;50.878;4.742;2022-11-27T04:34:02;7.47;;;3.10;;
10045;SDS011;5063;50.878;4.742;2022-11-27T04:36:27;9.13;;;3.17;;
10045;SDS011;5063;50.878;4.742;2022-11-27T04:38:53;5.97;;;3.37;;
10045;SDS011;5063;50.878;4.742;2022-11-27T04:41:19;7.33;;;3.00;;
10045;SDS011;5063;50.878;4.742;2022-11-27T04:43:44;7.23;;;3.23;;
10045;SDS011;5063;50.878;4.742;2022-11-27T04:46:10;7.23;;;3.40;;
10045;SDS011;5063;50.878;4.742;2022-11-27T04:48:36;6.70;;;2.60;;
10045;SDS011;5063;50.878;4.742;2022-11-27T04:51:01;6.73;;;3.50;;
10045;SDS011;5063;50.878;4.742;2022-11-27T04:53:27;7.30;;;3.97;;
10045;SDS011;5063;50.878;4.742;2022-11-27T04:55:53;7.63;;;4.13;;
10045;SDS011;5063;50.878;4.742;2022-11-27T04:58:18;6.97;;;3.33;;
10045;SDS011;5063;50.878;4.742;2022-11-27T05:00:44;7.27;;;3.70;;
10045;SDS011;5063;50.878;4.742;2022-11-27T05:03:10;8.23;;;3.77;;
10045;SDS011;5063;50.878;4.742;2022-11-27T05:05:36;5.77;;;3.43;;
10045;SDS011;5063;50.878;4.742;2022-11-27T05:08:02;7.37;;;3.70;;
10045;SDS011;5063;50.878;4.742;2022-11-27T05:10:28;7.10;;;3.57;;
10045;SDS011;5063;50.878;4.742;2022-11-27T05:12:54;6.17;;;3.43;;
10045;SDS011;5063;50.878;4.742;2022-11-27T05:15:19;8.50;;;4.10;;
10045;SDS011;5063;50.878;4.742;2022-11-27T05:17:45;6.97;;;4.00;;
10045;SDS011;5063;50.878;4.742;2022-11-27T05:20:11;9.27;;;4.07;;
10045;SDS011;5063;50.878;4.742;2022-11-27T05:22:36;12.10;;;3.97;;
10045;SDS011;5063;50.878;4.742;2022-11-27T05:25:02;7.23;;;4.10;;
10045;SDS011;5063;50.878;4.742;2022-11-27T05:27:28;9.73;;;3.97;;
10045;SDS011;5063;50.878;4.742;2022-11-27T05:29:54;8.60;;;3.43;;
10045;SDS011;5063;50.878;4.742;2022-11-27T05:32:19;7.63;;;3.87;;
10045;SDS011;5063;50.878;4.742;2022-11-27T05:34:45;11.37;;;4.47;;
10045;SDS011;5063;50.878;4.742;2022-11-27T05:37:12;9.97;;;4.17;;
10045;SDS011;5063;50.878;4.742;2022-11-27T05:39:38;7.87;;;4.13;;
10045;SDS011;5063;50.878;4.742;2022-11-27T05:42:04;11.33;;;4.43;;
10045;SDS011;5063;50.878;4.742;2022-11-27T05:44:30;6.10;;;4.13;;
10045;SDS011;5063;50.878;4.742;2022-11-27T05:46:55;10.50;;;4.30;;
10045;SDS011;5063;50.878;4.742;2022-11-27T05:49:21;7.73;;;4.50;;
10045;SDS011;5063;50.878;4.742;2022-11-27T05:51:47;5.83;;;3.97;;
10045;SDS011;5063;50.878;4.742;2022-11-27T05:54:12;9.83;;;4.00;;
10045;SDS011;5063;50.878;4.742;2022-11-27T05:56:38;5.80;;;3.77;;
10045;SDS011;5063;50.878;4.742;2022-11-27T05:59:04;7.63;;;3.97;;
10045;SDS011;5063;50.878;4.742;2022-11-27T06:01:29;6.83;;;3.83;;
10045;SDS011;5063;50.878;4.742;2022-11-27T06:03:55;9.27;;;4.07;;
10045;SDS011;5063;50.878;4.742;2022-11-27T06:06:21;12.87;;;5.47;;
10045;SDS011;5063;50.878;4.742;2022-11-27T06:08:47;9.83;;;4.37;;
10045;SDS011;5063;50.878;4.742;2022-11-27T06:11:16;6.07;;;3.83;;
10045;SDS011;5063;50.878;4.742;2022-11-27T06:13:45;8.17;;;4.37;;
10045;SDS011;5063;50.878;4.742;2022-11-27T06:16:13;8.63;;;4.37;;
10045;SDS011;5063;50.878;4.742;2022-11-27T06:18:40;9.93;;;4.40;;
10045;SDS011;5063;50.878;4.742;2022-11-27T06:21:07;5.13;;;4.00;;
10045;SDS011;5063;50.878;4.742;2022-11-27T06:23:34;8.63;;;3.87;;
10045;SDS011;5063;50.878;4.742;2022-11-27T06:26:17;9.10;;;4.90;;
10045;SDS011;5063;50.878;4.742;2022-11-27T06:28:45;8.63;;;3.80;;
10045;SDS011;5063;50.878;4.742;2022-11-27T06:31:13;7.63;;;4.60;;
10045;SDS011;5063;50.878;4.742;2022-11-27T06:33:46;6.13;;;4.00;;
10045;SDS011;5063;50.878;4.742;2022-11-27T06:36:14;8.70;;;4.43;;
10045;SDS011;5063;50.878;4.742;2022-11-27T06:38:40;8.77;;;4.00;;
10045;SDS011;5063;50.878;4.742;2022-11-27T06:41:07;6.53;;;4.03;;
10045;SDS011;5063;50.878;4.742;2022-11-27T06:43:35;9.53;;;3.93;;
10045;SDS011;5063;50.878;4.742;2022-11-27T06:46:01;8.63;;;4.63;;
10045;SDS011;5063;50.878;4.742;2022-11-27T06:48:28;9.67;;;4.17;;
10045;SDS011;5063;50.878;4.742;2022-11-27T06:50:57;12.87;;;4.23;;
10045;SDS011;5063;50.878;4.742;2022-11-27T06:53:30;7.10;;;3.87;;
10045;SDS011;5063;50.878;4.742;2022-11-27T06:55:58;7.90;;;4.10;;
10045;SDS011;5063;50.878;4.742;2022-11-27T06:58:27;5.40;;;3.53;;
10045;SDS011;5063;50.878;4.742;2022-11-27T07:00:56;8.87;;;3.97;;
10045;SDS011;5063;50.878;4.742;2022-11-27T07:03:23;8.57;;;3.93;;
10045;SDS011;5063;50.878;4.742;2022-11-27T07:05:49;5.87;;;3.53;;
10045;SDS011;5063;50.878;4.742;2022-11-27T07:08:14;7.20;;;3.73;;
10045;SDS011;5063;50.878;4.742;2022-11-27T07:10:40;6.47;;;3.47;;
10045;SDS011;5063;50.878;4.742;2022-11-27T07:13:05;6.60;;;3.93;;
10045;SDS011;5063;50.878;4.742;2022-11-27T07:15:31;6.67;;;3.60;;
10045;SDS011;5063;50.878;4.742;2022-11-27T07:17:57;7.57;;;3.97;;
10045;SDS011;5063;50.878;4.742;2022-11-27T07:20:23;7.40;;;4.07;;
10045;SDS011;5063;50.878;4.742;2022-11-27T07:22:49;7.50;;;3.47;;
10045;SDS011;5063;50.878;4.742;2022-11-27T07:25:14;8.20;;;3.40;;
10045;SDS011;5063;50.878;4.742;2022-11-27T07:27:40;6.73;;;3.83;;
10045;SDS011;5063;50.878;4.742;2022-11-27T07:30:06;8.97;;;4.03;;
10045;SDS011;5063;50.878;4.742;2022-11-27T07:32:32;7.40;;;3.60;;
10045;SDS011;5063;50.878;4.742;2022-11-27T07:34:58;5.90;;;3.70;;
10045;SDS011;5063;50.878;4.742;2022-11-27T07:37:24;8.27;;;4.03;;
10045;SDS011;5063;50.878;4.742;2022-11-27T07:39:49;7.23;;;3.57;;
10045;SDS011;5063;50.878;4.742;2022-11-27T07:42:15;7.10;;;4.10;;
10045;SDS011;5063;50.878;4.742;2022-11-27T07:44:41;6.57;;;4.00;;
10045;SDS011;5063;50.878;4.742;2022-11-27T07:47:06;7.73;;;3.87;;
10045;SDS011;5063;50.878;4.742;2022-11-27T07:49:32;5.73;;;3.47;;
10045;SDS011;5063;50.878;4.742;2022-11-27T07:51:58;4.73;;;3.20;;
10045;SDS011;5063;50.878;4.742;2022-11-27T07:54:24;7.60;;;4.20;;
10045;SDS011;5063;50.878;4.742;2022-11-27T07:56:49;5.27;;;3.23;;
10045;SDS011;5063;50.878;4.742;2022-11-27T07:59:15;11.53;;;3.87;;
10045;SDS011;5063;50.878;4.742;2022-11-27T08:01:41;8.90;;;4.03;;
10045;SDS011;5063;50.878;4.742;2022-11-27T08:04:08;6.87;;;3.87;;
10045;SDS011;5063;50.878;4.742;2022-11-27T08:06:34;7.10;;;3.57;;
10045;SDS011;5063;50.878;4.742;2022-11-27T08:09:00;6.90;;;3.60;;
10045;SDS011;5063;50.878;4.742;2022-11-27T08:11:26;5.20;;;3.97;;
10045;SDS011;5063;50.878;4.742;2022-11-27T08:14:05;7.70;;;3.37;;
10045;SDS011;5063;50.878;4.742;2022-11-27T08:16:32;5.23;;;3.27;;
10045;SDS011;5063;50.878;4.742;2022-11-27T08:18:58;7.93;;;3.40;;
10045;SDS011;5063;50.878;4.742;2022-11-27T08:21:25;7.30;;;3.40;;
10045;SDS011;5063;50.878;4.742;2022-11-27T08:23:51;7.13;;;3.30;;
10045;SDS011;5063;50.878;4.742;2022-11-27T08:26:18;5.93;;;2.87;;
10045;SDS011;5063;50.878;4.742;2022-11-27T08:28:45;7.07;;;3.10;;
10045;SDS011;5063;50.878;4.742;2022-11-27T08:31:11;8.17;;;3.37;;
10045;SDS011;5063;50.878;4.742;2022-11-27T08:33:38;6.53;;;3.27;;
10045;SDS011;5063;50.878;4.742;2022-11-27T08:36:04;6.97;;;3.40;;
10045;SDS011;5063;50.878;4.742;2022-11-27T08:38:30;6.97;;;3.20;;
10045;SDS011;5063;50.878;4.742;2022-11-27T08:40:57;6.43;;;3.00;;
10045;SDS011;5063;50.878;4.742;2022-11-27T08:43:24;7.77;;;3.00;;
10045;SDS011;5063;50.878;4.742;2022-11-27T08:45:51;5.67;;;3.27;;
10045;SDS011;5063;50.878;4.742;2022-11-27T08:48:17;5.13;;;3.43;;
10045;SDS011;5063;50.878;4.742;2022-11-27T08:50:43;6.43;;;3.70;;
10045;SDS011;5063;50.878;4.742;2022-11-27T08:53:09;7.73;;;3.03;;
10045;SDS011;5063;50.878;4.742;2022-11-27T08:55:35;7.80;;;3.43;;
10045;SDS011;5063;50.878;4.742;2022-11-27T08:58:01;4.10;;;2.90;;
10045;SDS011;5063;50.878;4.742;2022-11-27T09:00:28;5.33;;;3.27;;
10045;SDS011;5063;50.878;4.742;2022-11-27T09:02:54;7.10;;;3.57;;
10045;SDS011;5063;50.878;4.742;2022-11-27T09:05:20;6.67;;;3.17;;
10045;SDS011;5063;50.878;4.742;2022-11-27T09:07:45;5.53;;;2.97;;
10045;SDS011;5063;50.878;4.742;2022-11-27T09:10:11;7.27;;;3.37;;
10045;SDS011;5063;50.878;4.742;2022-11-27T09:12:37;3.50;;;2.73;;
10045;SDS011;5063;50.878;4.742;2022-11-27T09:15:03;7.07;;;3.93;;
10045;SDS011;5063;50.878;4.742;2022-11-27T09:17:29;5.70;;;3.27;;
10045;SDS011;5063;50.878;4.742;2022-11-27T09:19:55;5.23;;;2.73;;
10045;SDS011;5063;50.878;4.742;2022-11-27T09:22:20;5.60;;;3.07;;
10045;SDS011;5063;50.878;4.742;2022-11-27T09:24:46;5.63;;;3.57;;
10045;SDS011;5063;50.878;4.742;2022-11-27T09:27:12;4.73;;;2.73;;
10045;SDS011;5063;50.878;4.742;2022-11-27T09:29:37;9.33;;;3.70;;
10045;SDS011;5063;50.878;4.742;2022-11-27T09:32:03;6.73;;;3.53;;
10045;SDS011;5063;50.878;4.742;2022-11-27T09:34:29;5.20;;;3.17;;
10045;SDS011;5063;50.878;4.742;2022-11-27T09:36:55;5.43;;;3.43;;
10045;SDS011;5063;50.878;4.742;2022-11-27T09:39:21;7.40;;;3.53;;
10045;SDS011;5063;50.878;4.742;2022-11-27T09:41:50;4.50;;;3.23;;
10045;SDS011;5063;50.878;4.742;2022-11-27T09:44:32;5.83;;;3.43;;
10045;SDS011;5063;50.878;4.742;2022-11-27T09:47:15;4.70;;;3.60;;
10045;SDS011;5063;50.878;4.742;2022-11-27T09:52:46;5.90;;;3.13;;
10045;SDS011;5063;50.878;4.742;2022-11-27T09:55:30;6.13;;;3.43;;
10045;SDS011;5063;50.878;4.742;2022-11-27T10:00:45;6.87;;;3.33;;
10045;SDS011;5063;50.878;4.742;2022-11-27T10:03:21;6.73;;;3.80;;
10045;SDS011;5063;50.878;4.742;2022-11-27T10:08:25;8.10;;;3.37;;
10045;SDS011;5063;50.878;4.742;2022-11-27T10:13:47;8.77;;;4.63;;
10045;SDS011;5063;50.878;4.742;2022-11-27T10:16:30;6.33;;;4.00;;
10045;SDS011;5063;50.878;4.742;2022-11-27T10:27:42;6.83;;;3.57;;
10045;SDS011;5063;50.878;4.742;2022-11-27T10:30:24;5.10;;;3.37;;
10045;SDS011;5063;50.878;4.742;2022-11-27T10:32:53;6.50;;;3.60;;
10045;SDS011;5063;50.878;4.742;2022-11-27T10:35:25;4.80;;;3.43;;
10045;SDS011;5063;50.878;4.742;2022-11-27T10:40:29;8.77;;;3.90;;
10045;SDS011;5063;50.878;4.742;2022-11-27T10:48:34;5.83;;;3.67;;
10045;SDS011;5063;50.878;4.742;2022-11-27T10:51:00;9.47;;;3.97;;
10045;SDS011;5063;50.878;4.742;2022-11-27T10:53:28;7.83;;;3.77;;
10045;SDS011;5063;50.878;4.742;2022-11-27T11:01:06;6.33;;;3.67;;
10045;SDS011;5063;50.878;4.742;2022-11-27T11:03:39;5.20;;;3.80;;
10045;SDS011;5063;50.878;4.742;2022-11-27T11:06:24;6.27;;;3.53;;
10045;SDS011;5063;50.878;4.742;2022-11-27T11:09:00;6.30;;;3.73;;
10045;SDS011;5063;50.878;4.742;2022-11-27T11:11:36;8.43;;;3.93;;
10045;SDS011;5063;50.878;4.742;2022-11-27T11:14:02;8.20;;;3.90;;
10045;SDS011;5063;50.878;4.742;2022-11-27T11:16:28;6.47;;;3.70;;
10045;SDS011;5063;50.878;4.742;2022-11-27T11:18:55;7.13;;;4.07;;
10045;SDS011;5063;50.878;4.742;2022-11-27T11:21:26;8.47;;;3.83;;
10045;SDS011;5063;50.878;4.742;2022-11-27T11:24:02;4.47;;;3.50;;
10045;SDS011;5063;50.878;4.742;2022-11-27T11:26:47;5.30;;;3.70;;
10045;SDS011;5063;50.878;4.742;2022-11-27T11:29:21;5.37;;;3.60;;
10045;SDS011;5063;50.878;4.742;2022-11-27T11:31:55;5.87;;;3.97;;
10045;SDS011;5063;50.878;4.742;2022-11-27T11:34:27;4.90;;;3.20;;
10045;SDS011;5063;50.878;4.742;2022-11-27T11:39:27;6.40;;;3.90;;
10045;SDS011;5063;50.878;4.742;2022-11-27T11:41:54;6.70;;;3.93;;
10045;SDS011;5063;50.878;4.742;2022-11-27T11:44:22;5.27;;;4.17;;
10045;SDS011;5063;50.878;4.742;2022-11-27T11:47:00;7.40;;;3.93;;
10045;SDS011;5063;50.878;4.742;2022-11-27T11:49:26;5.60;;;3.87;;
10045;SDS011;5063;50.878;4.742;2022-11-27T12:00:20;6.57;;;3.63;;
10045;SDS011;5063;50.878;4.742;2022-11-27T12:08:36;3.83;;;3.30;;
10045;SDS011;5063;50.878;4.742;2022-11-27T12:28:04;4.30;;;3.77;;
10045;SDS011;5063;50.878;4.742;2022-11-27T12:33:56;4.43;;;2.87;;
10045;SDS011;5063;50.878;4.742;2022-11-27T12:44:53;5.00;;;3.23;;
10045;SDS011;5063;50.878;4.742;2022-11-27T12:47:43;7.50;;;3.70;;
10045;SDS011;5063;50.878;4.742;2022-11-27T12:50:31;5.50;;;3.50;;
10045;SDS011;5063;50.878;4.742;2022-11-27T12:53:20;4.57;;;3.37;;
10045;SDS011;5063;50.878;4.742;2022-11-27T12:56:09;4.47;;;3.50;;
10045;SDS011;5063;50.878;4.742;2022-11-27T12:58:45;5.47;;;3.27;;
10045;SDS011;5063;50.878;4.742;2022-11-27T13:01:26;4.30;;;3.83;;
10045;SDS011;5063;50.878;4.742;2022-11-27T13:04:42;6.60;;;3.70;;
10045;SDS011;5063;50.878;4.742;2022-11-27T13:21:22;5.07;;;3.93;;
10045;SDS011;5063;50.878;4.742;2022-11-27T13:23:51;6.13;;;3.70;;
10045;SDS011;5063;50.878;4.742;2022-11-27T13:26:27;9.83;;;4.13;;
10045;SDS011;5063;50.878;4.742;2022-11-27T13:29:07;5.53;;;3.57;;
10045;SDS011;5063;50.878;4.742;2022-11-27T13:31:54;5.60;;;3.57;;
10045;SDS011;5063;50.878;4.742;2022-11-27T13:34:23;5.43;;;4.00;;
10045;SDS011;5063;50.878;4.742;2022-11-27T13:36:59;7.30;;;3.63;;
10045;SDS011;5063;50.878;4.742;2022-11-27T13:39:29;4.93;;;3.60;;
10045;SDS011;5063;50.878;4.742;2022-11-27T13:42:03;6.40;;;4.10;;
10045;SDS011;5063;50.878;4.742;2022-11-27T13:44:33;6.70;;;4.40;;
10045;SDS011;5063;50.878;4.742;2022-11-27T13:47:06;5.80;;;4.23;;
10045;SDS011;5063;50.878;4.742;2022-11-27T13:49:37;8.53;;;4.37;;
10045;SDS011;5063;50.878;4.742;2022-11-27T13:52:10;6.37;;;4.10;;
10045;SDS011;5063;50.878;4.742;2022-11-27T13:54:39;8.27;;;4.50;;
10045;SDS011;5063;50.878;4.742;2022-11-27T13:57:20;6.57;;;4.10;;
10045;SDS011;5063;50.878;4.742;2022-11-27T14:02:39;7.77;;;4.53;;
10045;SDS011;5063;50.878;4.742;2022-11-27T14:05:11;6.73;;;4.60;;
10045;SDS011;5063;50.878;4.742;2022-11-27T14:07:39;5.90;;;4.50;;
10045;SDS011;5063;50.878;4.742;2022-11-27T14:10:08;6.60;;;4.30;;
10045;SDS011;5063;50.878;4.742;2022-11-27T14:12:39;4.60;;;3.97;;
10045;SDS011;5063;50.878;4.742;2022-11-27T14:17:42;7.37;;;5.10;;
10045;SDS011;5063;50.878;4.742;2022-11-27T14:25:21;7.07;;;4.30;;
10045;SDS011;5063;50.878;4.742;2022-11-27T14:27:56;8.20;;;4.93;;
10045;SDS011;5063;50.878;4.742;2022-11-27T14:30:32;6.53;;;4.80;;
10045;SDS011;5063;50.878;4.742;2022-11-27T14:33:23;7.70;;;4.23;;
10045;SDS011;5063;50.878;4.742;2022-11-27T14:35:50;8.90;;;4.47;;
10045;SDS011;5063;50.878;4.742;2022-11-27T14:38:17;5.83;;;4.73;;
10045;SDS011;5063;50.878;4.742;2022-11-27T14:40:43;6.10;;;4.43;;
10045;SDS011;5063;50.878;4.742;2022-11-27T14:43:17;5.90;;;5.00;;
10045;SDS011;5063;50.878;4.742;2022-11-27T14:45:53;6.13;;;4.93;;
10045;SDS011;5063;50.878;4.742;2022-11-27T14:48:26;7.03;;;5.40;;
10045;SDS011;5063;50.878;4.742;2022-11-27T14:50:55;8.73;;;5.03;;
10045;SDS011;5063;50.878;4.742;2022-11-27T14:53:22;8.60;;;5.13;;
10045;SDS011;5063;50.878;4.742;2022-11-27T14:55:51;7.07;;;4.63;;
10045;SDS011;5063;50.878;4.742;2022-11-27T14:58:29;6.97;;;4.77;;
10045;SDS011;5063;50.878;4.742;2022-11-27T15:00:59;6.60;;;4.83;;
10045;SDS011;5063;50.878;4.742;2022-11-27T15:03:28;5.83;;;4.57;;
10045;SDS011;5063;50.878;4.742;2022-11-27T15:05:59;5.33;;;4.77;;
10045;SDS011;5063;50.878;4.742;2022-11-27T15:08:27;7.33;;;4.47;;
10045;SDS011;5063;50.878;4.742;2022-11-27T15:10:56;7.87;;;4.67;;
10045;SDS011;5063;50.878;4.742;2022-11-27T15:13:28;6.67;;;4.70;;
10045;SDS011;5063;50.878;4.742;2022-11-27T15:16:03;10.57;;;4.97;;
10045;SDS011;5063;50.878;4.742;2022-11-27T15:18:32;6.73;;;4.57;;
10045;SDS011;5063;50.878;4.742;2022-11-27T15:21:01;8.77;;;4.57;;
10045;SDS011;5063;50.878;4.742;2022-11-27T15:23:33;7.63;;;4.57;;
10045;SDS011;5063;50.878;4.742;2022-11-27T15:28:37;7.90;;;4.67;;
10045;SDS011;5063;50.878;4.742;2022-11-27T15:34:02;7.70;;;4.30;;
10045;SDS011;5063;50.878;4.742;2022-11-27T15:36:56;5.93;;;4.57;;
10045;SDS011;5063;50.878;4.742;2022-11-27T15:41:56;6.67;;;4.37;;
10045;SDS011;5063;50.878;4.742;2022-11-27T15:44:27;7.67;;;4.60;;
10045;SDS011;5063;50.878;4.742;2022-11-27T15:46:55;9.73;;;4.83;;
10045;SDS011;5063;50.878;4.742;2022-11-27T15:49:23;7.80;;;4.73;;
10045;SDS011;5063;50.878;4.742;2022-11-27T15:51:49;5.17;;;4.43;;
10045;SDS011;5063;50.878;4.742;2022-11-27T15:54:15;9.13;;;5.27;;
10045;SDS011;5063;50.878;4.742;2022-11-27T15:56:41;7.63;;;5.30;;
10045;SDS011;5063;50.878;4.742;2022-11-27T15:59:08;9.20;;;5.27;;
10045;SDS011;5063;50.878;4.742;2022-11-27T16:01:35;6.60;;;4.30;;
10045;SDS011;5063;50.878;4.742;2022-11-27T16:04:01;9.03;;;5.10;;
10045;SDS011;5063;50.878;4.742;2022-11-27T16:06:27;6.90;;;4.63;;
10045;SDS011;5063;50.878;4.742;2022-11-27T16:08:56;7.33;;;4.43;;
10045;SDS011;5063;50.878;4.742;2022-11-27T16:11:28;8.90;;;5.00;;
10045;SDS011;5063;50.878;4.742;2022-11-27T16:13:54;8.93;;;4.73;;
10045;SDS011;5063;50.878;4.742;2022-11-27T16:16:21;6.07;;;4.57;;
10045;SDS011;5063;50.878;4.742;2022-11-27T16:18:48;9.07;;;5.60;;
10045;SDS011;5063;50.878;4.742;2022-11-27T16:21:14;7.43;;;5.37;;
10045;SDS011;5063;50.878;4.742;2022-11-27T16:23:41;5.40;;;4.80;;
10045;SDS011;5063;50.878;4.742;2022-11-27T16:26:09;5.83;;;4.40;;
10045;SDS011;5063;50.878;4.742;2022-11-27T16:28:36;8.37;;;4.50;;
10045;SDS011;5063;50.878;4.742;2022-11-27T16:31:02;6.03;;;4.70;;
10045;SDS011;5063;50.878;4.742;2022-11-27T16:33:33;6.80;;;4.83;;
10045;SDS011;5063;50.878;4.742;2022-11-27T16:36:05;7.53;;;4.83;;
10045;SDS011;5063;50.878;4.742;2022-11-27T16:38:37;7.07;;;4.97;;
10045;SDS011;5063;50.878;4.742;2022-11-27T16:41:04;7.13;;;4.57;;
10045;SDS011;5063;50.878;4.742;2022-11-27T16:43:35;8.23;;;5.37;;
10045;SDS011;5063;50.878;4.742;2022-11-27T16:46:16;10.77;;;5.37;;
10045;SDS011;5063;50.878;4.742;2022-11-27T16:48:44;6.37;;;4.60;;
10045;SDS011;5063;50.878;4.742;2022-11-27T16:51:17;7.53;;;4.77;;
10045;SDS011;5063;50.878;4.742;2022-11-27T16:53:46;5.73;;;4.50;;
10045;SDS011;5063;50.878;4.742;2022-11-27T16:56:15;6.47;;;4.63;;
10045;SDS011;5063;50.878;4.742;2022-11-27T16:58:42;5.57;;;4.20;;
10045;SDS011;5063;50.878;4.742;2022-11-27T17:01:14;7.07;;;4.97;;
10045;SDS011;5063;50.878;4.742;2022-11-27T17:03:42;6.23;;;4.27;;
10045;SDS011;5063;50.878;4.742;2022-11-27T17:06:14;7.10;;;4.83;;
10045;SDS011;5063;50.878;4.742;2022-11-27T17:08:42;6.63;;;4.67;;
10045;SDS011;5063;50.878;4.742;2022-11-27T17:11:12;8.17;;;5.00;;
10045;SDS011;5063;50.878;4.742;2022-11-27T17:13:41;8.63;;;5.13;;
10045;SDS011;5063;50.878;4.742;2022-11-27T17:16:07;7.47;;;4.83;;
10045;SDS011;5063;50.878;4.742;2022-11-27T17:18:37;6.33;;;4.73;;
10045;SDS011;5063;50.878;4.742;2022-11-27T17:21:10;6.10;;;4.40;;
10045;SDS011;5063;50.878;4.742;2022-11-27T17:23:49;6.77;;;5.17;;